• Join FlightAware (Why Join?)
  • Login
  • US Flag 
06:18PM EDT


 

Airport Tracker/Info


-or-


 

Live Flight TrackerFlight Track Log ✈ DAL1116 ✈ 19-Apr-2013 ✈ KLAS - KDTW

Flight Track Log - Related Links

Times and Time Zones

All times are in EDT time to prevent confusion due to time zone crossing. See the DAL1116 flight status page for this flight to view local times or setup timezone preferences in your user account.

Time Position Orientation Groundspeed Altitude Reporting Facility
EDT Latitude Longitude Course Direction KTS MPH feet Rate Location/Type
07:43PM 36.0747 -115.1819 93° East 186 214 3,500  Level Los Angeles Center
07:43PM 36.0753 -115.2244 271° West 211 243 4,200 1,920 Climbing Los Angeles Center
07:44PM 36.1025 -115.2900 297° West 245 282 6,700 2,100 Climbing Los Angeles Center
07:45PM 36.1834 -115.0375 90° East  Level FlightAware Approximate
07:45PM 36.1078 -115.2903 358° North 242 278 6,900  Level Los Angeles Center
07:46PM 36.1851 -114.8710 80° East  Level FlightAware Approximate
07:46PM 36.1761 -115.2494 26° Northeast 258 297 10,100  Level Los Angeles Center
07:47PM 36.1973 -114.7061 93° East  Level FlightAware Approximate
07:47PM 36.1981 -115.1519 74° East 296 341 11,200  Level Los Angeles Center
07:48PM 36.1898 -114.5398 93° East  Level FlightAware Approximate
07:48PM 36.1983 -115.0236 90° East 366 421 12,500  Level Los Angeles Center
07:49PM 36.1989 -114.8858 90° East 394 453 14,500 2,040 Climbing Los Angeles Center
07:50PM 36.1997 -114.7461 90° East 405 466 16,800 1,980 Climbing Los Angeles Center
07:51PM 36.1978 -114.5708 91° East 419 482 18,600 1,560 Climbing Los Angeles Center
07:52PM 36.1956 -114.4156 91° East 441 507 20,100 1,500 Climbing Los Angeles Center
07:53PM 36.1939 -114.2572 91° East 455 524 21,700 1,440 Climbing Los Angeles Center
07:54PM 36.2103 -114.0961 83° East 469 540 23,100 1,260 Climbing Los Angeles Center
07:55PM 36.2306 -113.9331 81° East 476 548 24,400 1,200 Climbing Los Angeles Center
07:56PM 36.2486 -113.7664 82° East 485 558 25,700 1,200 Climbing Los Angeles Center
07:57PM 36.2733 -113.5631 81° East 496 571 26,900 1,020 Climbing Los Angeles Center
07:58PM 36.2933 -113.3908 82° East 502 578 27,900 900 Climbing Los Angeles Center
07:59PM 36.3222 -113.2119 79° East 509 586 28,800 900 Climbing Los Angeles Center
08:00PM 36.3753 -113.0519 68° East 507 583 29,800 960 Climbing Los Angeles Center
08:01PM 36.4339 -112.8964 65° Northeast 503 579 30,800 540 Climbing Los Angeles Center
08:02PM 36.4908 -112.7406 66° East 500 575 31,000 120 Climbing Los Angeles Center
08:03PM 36.5489 -112.5844 65° Northeast 500 575 31,100 420 Climbing Los Angeles Center
08:04PM 36.6181 -112.3953 65° Northeast 503 579 31,900 780 Climbing Los Angeles Center
08:05PM 36.6747 -112.2372 66° East 504 580 32,800 780 Climbing Los Angeles Center
08:06PM 36.7211 -112.1108 65° Northeast 504 580 33,400 660 Climbing Denver Center
08:07PM 36.7778 -111.9528 66° East 504 580 34,100 480 Climbing Denver Center
08:08PM 36.8356 -111.7931 66° East 506 582 34,500 420 Climbing Denver Center
08:09PM 36.8931 -111.6328 66° East 509 586 35,000 240 Climbing Denver Center
08:10PM 36.9633 -111.4392 66° East 511 588 35,000  Level Denver Center
08:11PM 37.0117 -111.2753 70° East 510 587 35,000  Level Denver Center
08:12PM 37.0478 -111.1017 75° East 520 598 35,000  Level Denver Center
08:13PM 37.0850 -110.9286 75° East 519 597 35,000  Level Denver Center
08:14PM 37.1225 -110.7542 75° East 522 601 35,000  Level Denver Center
08:15PM 37.1694 -110.5864 71° East 514 592 35,000  Level Denver Center
08:16PM 37.2269 -110.3858 70° East 513 590 35,000  Level Denver Center
08:17PM 37.2764 -110.2186 70° East 513 590 35,000  Level Denver Center
08:18PM 37.3269 -110.0444 70° East 513 590 35,000  Level Denver Center
08:19PM 37.3664 -109.9075 70° East 518 596 35,000  Level Denver Center
08:20PM 37.4297 -109.6908 70° East 518 596 35,100  Climbing Denver Center
08:21PM 37.4753 -109.5286 70° East 513 590 35,000 -60 Descending Denver Center
08:23PM 37.5283 -109.3419 70° East 509 586 35,000  Level Denver Center
08:24PM 37.5736 -109.1817 70° East 507 583 35,000  Level Denver Center
08:25PM 37.6175 -109.0219 71° East 504 580 35,000  Level Denver Center
08:26PM 37.6694 -108.8378 70° East 501 577 35,000  Level Denver Center
08:27PM 37.7122 -108.6783 71° East 500 575 35,000  Level Denver Center
08:28PM 37.7625 -108.4967 71° East 493 567 35,000  Level Denver Center
08:29PM 37.8050 -108.3411 71° East 489 563 35,000  Level Denver Center
08:30PM 37.8414 -108.2111 70° East 489 563 35,000  Level Denver Center
08:31PM 37.8975 -108.0008 71° East 492 566 35,100  Climbing Denver Center
08:32PM 37.9400 -107.8411 71° East 498 573 35,000 -60 Descending Denver Center
08:33PM 37.9886 -107.6600 71° East 488 562 35,000  Level Denver Center
08:34PM 38.0289 -107.5036 72° East 488 562 35,000  Level Denver Center
08:35PM 38.0761 -107.3253 71° East 478 550 35,000  Level Denver Center
08:36PM 38.1175 -107.1636 72° East 481 554 35,000  Level Denver Center
08:37PM 38.1606 -107.0019 71° East 482 555 35,000  Level Denver Center
08:38PM 38.2153 -106.7875 72° East 487 560 35,000  Level Denver Center
08:39PM 38.2556 -106.6311 72° East 488 562 35,100  Climbing Denver Center
08:40PM 38.2933 -106.4806 72° East 485 558 35,100 -60 Level Denver Center
08:41PM 38.3342 -106.3189 72° East 480 552 35,000 -60 Descending Denver Center
08:42PM 38.3853 -106.1153 72° East 482 555 35,000  Level Denver Center
08:43PM 38.4239 -105.9594 72° East 483 556 35,000  Level Denver Center
08:44PM 38.4633 -105.7969 73° East 483 556 35,000  Level Denver Center
08:45PM 38.5042 -105.6292 73° East 490 564 35,100  Climbing Denver Center
08:46PM 38.5442 -105.4644 73° East 484 557 35,000 -60 Descending Denver Center
08:47PM 38.5844 -105.2989 73° East 484 557 35,000  Level Denver Center
08:48PM 38.6314 -105.1072 73° East 481 554 35,000  Level Denver Center
08:49PM 38.6711 -104.9386 73° East 489 563 35,000  Level Denver Center
08:51PM 38.7100 -104.7703 73° East 492 566 35,000  Level Denver Center
08:52PM 38.7500 -104.6044 73° East 487 560 35,000  Level Denver Center
08:53PM 38.7889 -104.4369 73° East 488 562 35,000  Level Denver Center
08:54PM 38.8264 -104.2725 74° East 481 554 35,000  Level Denver Center
08:55PM 38.8650 -104.1075 73° East 480 552 35,000  Level Denver Center
08:56PM 38.9086 -103.9131 74° East 482 555 35,000  Level Denver Center
08:57PM 38.9467 -103.7464 74° East 485 558 35,000  Level Denver Center
08:58PM 38.9844 -103.5800 74° East 484 557 35,000  Level Denver Center
08:59PM 39.0211 -103.4119 74° East 486 559 35,000  Level Denver Center
09:00PM 39.0583 -103.2453 74° East 484 557 35,000  Level Denver Center
09:01PM 39.0942 -103.0772 75° East 485 558 35,000  Level Denver Center
09:02PM 39.1328 -102.9083 74° East 485 558 35,000  Level Denver Center
09:03PM 39.1728 -102.7186 75° East 491 565 35,000  Level Denver Center
09:04PM 39.2067 -102.5572 75° East 489 563 35,000  Level Denver Center
09:05PM 39.2472 -102.3661 75° East 494 568 35,000  Level Denver Center
09:06PM 39.2814 -102.2022 75° East 493 567 35,000  Level Denver Center
09:07PM 39.3158 -102.0397 75° East 490 564 35,000  Level Denver Center
09:08PM 39.3536 -101.8544 75° East 489 563 35,000  Level Denver Center
09:09PM 39.3931 -101.6675 75° East 486 559 35,000  Level Denver Center
09:10PM 39.4200 -101.5033 78° East 486 559 35,000  Level Denver Center
09:11PM 39.4489 -101.3378 77° East 492 566 35,000  Level Denver Center
09:12PM 39.4814 -101.1458 78° East 492 566 35,000  Level Denver Center
09:13PM 39.5086 -100.9819 78° East 490 564 35,000  Level Denver Center
09:14PM 39.5403 -100.7903 78° East 488 562 35,000  Level Denver Center
09:15PM 39.5678 -100.6286 78° East 484 557 35,000  Level Denver Center
09:16PM 39.5981 -100.4381 78° East 484 557 35,000  Level Denver Center
09:17PM 39.6244 -100.2758 78° East 483 556 35,000  Level Denver Center
09:18PM 39.6547 -100.0864 78° East 482 555 35,000  Level Denver Center
09:19PM 39.6817 -99.9197 78° East 486 559 35,000  Level Denver Center
09:20PM 39.7081 -99.7483 79° East 485 558 35,000  Level Denver Center
09:21PM 39.7344 -99.5775 79° East 484 557 35,000  Level Denver Center
09:22PM 39.7547 -99.4397 79° East 486 559 35,000  Level Denver Center
09:23PM 39.7808 -99.2678 79° East 486 559 35,000  Level Denver Center
09:24PM 39.8172 -99.0269 79° East 487 560 35,000  Level Denver Center
09:26PM 39.8425 -98.8564 79° East 484 557 35,000  Level Denver Center
09:26PM 39.8528 -98.7872 79° East 487 560 35,000  Level Minneapolis Center
09:27PM 39.8775 -98.6158 79° East 486 559 35,000  Level Minneapolis Center
09:28PM 39.9025 -98.4442 79° East 484 557 35,000  Level Minneapolis Center
09:29PM 39.9275 -98.2711 79° East 486 559 35,000  Level Minneapolis Center
09:30PM 39.9564 -98.0633 80° East 487 560 35,000  Level Minneapolis Center
09:31PM 39.9803 -97.8911 80° East 486 559 35,000  Level Minneapolis Center
09:32PM 40.0042 -97.7178 80° East 486 559 35,000  Level Minneapolis Center
09:33PM 40.0281 -97.5442 80° East 487 560 35,000  Level Minneapolis Center
09:34PM 40.0511 -97.3689 80° East 490 564 35,000  Level Minneapolis Center
09:35PM 40.0736 -97.1922 80° East 489 563 35,000  Level Minneapolis Center
09:36PM 40.0975 -97.0194 80° East 487 560 35,000  Level Minneapolis Center
09:37PM 40.1242 -96.8119 80° East 485 558 35,000  Level Minneapolis Center
09:38PM 40.1467 -96.6375 80° East 487 560 35,000  Level Minneapolis Center
09:39PM 40.1686 -96.4636 81° East 488 562 35,000  Level Minneapolis Center
09:41PM 40.1906 -96.2889 81° East 488 562 35,000  Level Minneapolis Center
09:42PM 40.2225 -96.0783 79° East 491 565 35,000  Level Minneapolis Center
09:43PM 40.2561 -95.9053 76° East 492 566 35,000  Level Minneapolis Center
09:44PM 40.2892 -95.7317 76° East 494 568 35,000  Level Minneapolis Center
09:45PM 40.3264 -95.5247 77° East 490 564 35,000  Level Minneapolis Center
09:46PM 40.3583 -95.3508 76° East 490 564 35,000  Level Minneapolis Center
09:47PM 40.3886 -95.1778 77° East 490 564 35,000  Level Minneapolis Center
09:48PM 40.4197 -95.0031 77° East 492 566 35,000  Level Minneapolis Center
09:49PM 40.4517 -94.8261 77° East 496 571 35,000  Level Minneapolis Center
09:50PM 40.4819 -94.6511 77° East 495 570 35,000  Level Minneapolis Center
09:51PM 40.5133 -94.4667 77° East 499 574 35,000  Level Minneapolis Center
09:52PM 40.5428 -94.2892 78° East 500 575 35,000  Level Minneapolis Center
09:53PM 40.5742 -94.1100 77° East 503 579 35,000  Level Minneapolis Center
09:54PM 40.6033 -93.9292 78° East 507 583 35,000  Level Minneapolis Center
09:55PM 40.6350 -93.7117 79° East 506 582 35,000  Level Minneapolis Center
09:56PM 40.6606 -93.5328 79° East 503 579 35,000  Level Minneapolis Center
09:57PM 40.6861 -93.3539 79° East 500 575 35,000  Level Minneapolis Center
09:58PM 40.7103 -93.1775 80° East 493 567 35,000  Level Minneapolis Center
09:59PM 40.7375 -92.9975 79° East 498 573 35,000  Level Minneapolis Center
10:00PM 40.7614 -92.8214 80° East 492 566 35,000  Level Minneapolis Center
10:01PM 40.7853 -92.6422 80° East 492 566 35,000  Level Minneapolis Center
10:02PM 40.8103 -92.4625 80° East 496 571 35,000  Level Minneapolis Center
10:03PM 40.8392 -92.2456 80° East 498 573 35,000  Level Minneapolis Center
10:04PM 40.8583 -92.1031 80° East 496 571 35,000  Level Minneapolis Center
10:05PM 40.8864 -91.8881 80° East 497 572 35,000  Level Minneapolis Center
10:06PM 40.9072 -91.7283 80° East 498 573 35,000  Level Minneapolis Center
10:07PM 40.9367 -91.4931 81° East 497 572 35,000  Level Chicago Center
10:08PM 40.9606 -91.3053 80° East 501 577 35,000  Level Chicago Center
10:09PM 40.9828 -91.1217 81° East 504 580 35,000  Level Chicago Center
10:10PM 41.0053 -90.9367 81° East 508 585 35,000  Level Chicago Center
10:11PM 41.0344 -90.7553 78° East 503 579 35,000  Level Chicago Center
10:13PM 41.0689 -90.5756 76° East 503 579 35,000  Level Chicago Center
10:14PM 41.1028 -90.3950 76° East 502 578 35,000  Level Chicago Center
10:15PM 41.1364 -90.2136 76° East 501 577 35,000  Level Chicago Center
10:16PM 41.1683 -90.0344 77° East 497 572 35,000  Level Chicago Center
10:17PM 41.2008 -89.8531 77° East 500 575 35,000  Level Chicago Center
10:18PM 41.2328 -89.6700 77° East 504 580 35,000  Level Chicago Center
10:19PM 41.2650 -89.4847 77° East 510 587 35,000  Level Chicago Center
10:20PM 41.2978 -89.2986 77° East 516 594 35,000  Level Chicago Center
10:21PM 41.3300 -89.1078 77° East 512 589 35,000  Level Chicago Center
10:22PM 41.3678 -88.8858 77° East 516 594 35,000  Level Chicago Center
10:23PM 41.3986 -88.7028 77° East 513 590 35,000  Level Chicago Center
10:24PM 41.4286 -88.5178 78° East 512 589 35,000  Level Chicago Center
10:25PM 41.4589 -88.3331 78° East 510 587 35,000  Level Chicago Center
10:26PM 41.4878 -88.1447 78° East 513 590 35,000  Level Chicago Center
10:27PM 41.5206 -87.9539 77° East 508 585 35,000  Level Chicago Center
10:28PM 41.5494 -87.7694 78° East 504 580 35,000  Level Chicago Center
10:29PM 41.5778 -87.5864 78° East 504 580 35,000  Level Chicago Center
10:30PM 41.6064 -87.4028 78° East 506 582 35,000  Level Chicago Center
10:31PM 41.6342 -87.2208 78° East 502 578 35,000  Level Chicago Center
10:32PM 41.6608 -87.0394 79° East 500 575 35,000  Level Chicago Center
10:33PM 41.6883 -86.8583 78° East 499 574 35,000 -600 Level Chicago Center
10:34PM 41.7489 -86.6783 66° East 510 587 33,800 -1,380 Descending Chicago Center
10:35PM 41.8092 -86.5078 65° Northeast 509 586 32,300 -1,500 Descending Chicago Center
10:36PM 41.8708 -86.3347 64° Northeast 512 589 30,800 -1,440 Descending Chicago Center
10:37PM 41.9314 -86.1611 65° Northeast 514 592 29,400 -1,380 Descending Chicago Center
10:38PM 41.9522 -85.9792 81° East 492 566 28,000 -1,440 Descending Chicago Center
10:39PM 41.9653 -85.8006 84° East 482 555 26,500 -1,380 Descending Chicago Center
10:40PM 41.9725 -85.6294 87° East 462 532 25,200 -1,140 Descending Chicago Center
10:41PM 41.9906 -85.4594 82° East 458 527 24,200 -1,740 Descending Chicago Center
10:42PM 42.0114 -85.2928 80° East 464 534 22,000 -2,580 Descending Cleveland Center
10:43PM 42.0261 -85.1344 83° East 443 510 19,500 -1,500 Descending Cleveland Center
10:44PM 42.0444 -84.9819 81° East 423 487 19,000 -300 Descending Cleveland Center
10:45PM 42.0606 -84.8292 82° East 411 473 19,000  Level Cleveland Center
10:46PM 42.0789 -84.6736 81° East 411 473 19,000  Level Cleveland Center
10:47PM 42.0947 -84.5208 82° East 411 473 19,000  Level Cleveland Center
10:47PM 42.0986 -84.4650 85° East 415 478 19,000  Level Cleveland Center
10:48PM 42.1067 -84.4067 79° East 414 476 19,000  Level Cleveland Center
10:48PM 42.1122 -84.3706 78° East 411 473 19,000 -1,920 Level Cleveland Center
10:49PM 42.1222 -84.2536 83° East 414 476 17,100 -2,520 Descending Cleveland Center
10:50PM 42.1372 -84.1031 82° East 406 467 14,600 -2,460 Descending Cleveland Center
10:51PM 42.1586 -83.9503 79° East 390 449 12,200 -1,680 Descending Cleveland Center
10:52PM 42.2058 -83.8322 62° Northeast 353 406 11,300 -1,320 Descending Cleveland Center
10:53PM 42.2444 -83.7219 65° Northeast 318 366 9,600 -2,340 Descending Cleveland Center
10:54PM 42.2800 -83.6131 66° East 310 357 6,500 -3,120 Descending FAA TRACON SMA TRACON (SMA)
10:54PM 42.2925 -83.5728 67° East 305 351 5,300 -3,000 Descending FAA TRACON SMA TRACON (SMA)
10:54PM 42.3047 -83.5425 61° Northeast 292 336 4,500 -1,800 Descending FAA TRACON SMA TRACON (SMA)
10:55PM 42.3211 -83.5161 50° Northeast 290 334 4,100 -780 Descending FAA TRACON SMA TRACON (SMA)
10:55PM 42.3406 -83.4881 47° Northeast 298 343 4,000 -300 Descending FAA TRACON SMA TRACON (SMA)
10:55PM 42.3594 -83.4606 47° Northeast 293 337 3,900 -180 Descending FAA TRACON SMA TRACON (SMA)
10:56PM 42.3750 -83.4383 47° Northeast 296 341 3,900  Level FAA TRACON SMA TRACON (SMA)
10:56PM 42.3900 -83.3989 63° Northeast 277 319 3,900  Level FAA TRACON SMA TRACON (SMA)
10:56PM 42.3906 -83.3686 89° East 250 288 3,900 120 Level FAA TRACON SMA TRACON (SMA)
10:57PM 42.3903 -83.3336 91° East 235 270 4,000  Climbing FAA TRACON SMA TRACON (SMA)
10:57PM 42.3897 -83.3072 92° East 221 254 3,900 -480 Descending FAA TRACON SMA TRACON (SMA)
10:57PM 42.3833 -83.2856 112° Southeast 206 237 3,700 -900 Descending FAA TRACON SMA TRACON (SMA)
10:58PM 42.3678 -83.2739 151° Southeast 164 189 3,300 -1,200 Descending FAA TRACON SMA TRACON (SMA)